Time;durP1;ratioP1;P1;durP2;ratioP2;P2;SDS_P1;SDS_P2;PMS_P1;PMS_P2;Temp;Humidity;BMP_temperature;BMP_pressure;BME280_temperature;BME280_humidity;BME280_pressure;Samples;Min_cycle;Max_cycle;Signal;HPM_P1;HPM_P2
2022/09/29 00:02:11;;;;;;;11.90;4.47;;;;;;;-147.98;100.00;69253.78;5072947;28;20037;-81
2022/09/29 00:04:44;;;;;;;6.50;3.97;;;;;;;-147.98;100.00;69253.78;5071312;28;20056;-81
2022/09/29 00:07:14;;;;;;;6.22;4.05;;;;;;;-147.98;100.00;69253.78;5072174;28;20052;-81
2022/09/29 00:09:47;;;;;;;7.65;4.13;;;;;;;-147.98;100.00;69253.78;5074496;28;20040;-81
2022/09/29 00:12:20;;;;;;;5.75;4.10;;;;;;;-147.98;100.00;69253.78;5070308;28;20053;-81
2022/09/29 00:14:48;;;;;;;8.63;3.92;;;;;;;-147.98;100.00;69253.78;5065478;28;20041;-81
2022/09/29 00:17:21;;;;;;;6.45;3.72;;;;;;;-147.98;100.00;69253.78;5089417;28;20041;-81
2022/09/29 00:19:54;;;;;;;6.45;3.88;;;;;;;-147.98;100.00;69253.78;5103886;28;20492;-81
2022/09/29 00:22:29;;;;;;;7.43;4.22;;;;;;;-147.98;100.00;69253.78;5094045;28;20049;-80
2022/09/29 00:25:02;;;;;;;5.20;3.60;;;;;;;-147.98;100.00;69253.78;5072318;28;20044;-82
2022/09/29 00:27:35;;;;;;;6.85;4.00;;;;;;;-147.98;100.00;69253.78;5071793;28;20067;-81
2022/09/29 00:30:09;;;;;;;8.43;4.82;;;;;;;-147.98;100.00;69253.78;5045339;28;20052;-80
2022/09/29 00:32:42;;;;;;;8.68;3.95;;;;;;;-147.98;100.00;69253.78;5068381;28;20040;-81
2022/09/29 00:35:11;;;;;;;6.55;4.50;;;;;;;-147.98;100.00;69253.78;5053634;28;20048;-81
2022/09/29 00:37:46;;;;;;;6.22;4.28;;;;;;;-147.98;100.00;69253.78;5064727;28;20043;-81
2022/09/29 00:40:19;;;;;;;6.55;3.88;;;;;;;-147.98;100.00;69253.78;5064416;28;20049;-81
2022/09/29 00:42:52;;;;;;;7.35;3.95;;;;;;;-147.98;100.00;69253.78;5059200;28;20040;-82
2022/09/29 00:45:26;;;;;;;5.85;4.07;;;;;;;-147.98;100.00;69253.78;5069315;28;20052;-81
2022/09/29 00:48:06;;;;;;;5.53;3.70;;;;;;;-147.98;100.00;69253.78;5074525;28;20041;-82
2022/09/29 00:50:43;;;;;;;6.80;4.30;;;;;;;-147.98;100.00;69253.78;5062655;28;20052;-81
2022/09/29 00:53:20;;;;;;;9.73;4.45;;;;;;;-147.98;100.00;69253.78;5083325;28;20041;-81
2022/09/29 00:55:52;;;;;;;7.93;4.22;;;;;;;-147.98;100.00;69253.78;5070674;28;20044;-81
2022/09/29 00:58:28;;;;;;;;;;;;;;;-147.98;100.00;69253.78;5052234;28;20422;-80
2022/09/29 01:01:01;;;;;;;5.53;3.75;;;;;;;-147.98;100.00;69253.78;5059195;28;19935;-81
2022/09/29 01:03:38;;;;;;;6.25;3.90;;;;;;;-147.98;100.00;69253.78;5049340;28;20663;-81
2022/09/29 01:06:17;;;;;;;7.70;4.55;;;;;;;-147.98;100.00;69253.78;5069432;28;20048;-81
2022/09/29 01:08:57;;;;;;;7.13;3.83;;;;;;;-147.98;100.00;69253.78;5046551;28;20103;-81
2022/09/29 01:11:30;;;;;;;7.80;4.03;;;;;;;-147.98;100.00;69253.78;5064768;28;20076;-80
2022/09/29 01:14:02;;;;;;;5.57;3.70;;;;;;;-147.98;100.00;69253.78;5063136;28;20041;-81
2022/09/29 01:16:38;;;;;;;6.38;4.28;;;;;;;-147.98;100.00;69253.78;5065483;28;20048;-81
2022/09/29 01:19:16;;;;;;;5.70;3.97;;;;;;;-147.98;100.00;69253.78;5073366;28;20036;-80
2022/09/29 01:22:01;;;;;;;5.25;3.85;;;;;;;-147.98;100.00;69253.78;5054956;28;20045;-80
2022/09/29 01:25:03;;;;;;;5.88;3.97;;;;;;;-147.98;100.00;69253.78;5065219;28;20047;-80
2022/09/29 01:28:02;;;;;;;6.43;3.90;;;;;;;-147.98;100.00;69253.78;5065380;28;20048;-80
2022/09/29 01:31:00;;;;;;;5.60;3.85;;;;;;;-147.98;100.00;69253.78;5057823;28;20488;-80
2022/09/29 01:33:39;;;;;;;6.25;3.97;;;;;;;-147.98;100.00;69253.78;5068931;28;20044;-83
2022/09/29 01:36:16;;;;;;;6.18;4.10;;;;;;;-147.98;100.00;69253.78;5049921;28;20056;-83
2022/09/29 01:39:05;;;;;;;6.18;4.13;;;;;;;-147.98;100.00;69253.78;5058496;28;20036;-82
2022/09/29 01:41:43;;;;;;;8.07;4.28;;;;;;;-147.98;100.00;69253.78;5067845;28;20487;-83
2022/09/29 01:44:23;;;;;;;7.55;4.45;;;;;;;-147.98;100.00;69253.78;5059497;28;20057;-82
2022/09/29 01:47:02;;;;;;;7.15;4.32;;;;;;;-147.98;100.00;69253.78;5044529;28;20056;-80
2022/09/29 01:49:34;;;;;;;6.95;4.18;;;;;;;-147.98;100.00;69253.78;5069884;28;20045;-82
2022/09/29 01:52:10;;;;;;;6.60;4.22;;;;;;;-147.98;100.00;69253.78;5068728;28;20052;-80
2022/09/29 01:54:47;;;;;;;10.57;4.70;;;;;;;-147.98;100.00;69253.78;5065768;28;20039;-82
2022/09/29 01:57:27;;;;;;;7.30;4.45;;;;;;;-147.98;100.00;69253.78;5065942;28;20036;-82
2022/09/29 02:00:09;;;;;;;7.65;4.40;;;;;;;-147.98;100.00;69253.78;5068856;28;20075;-81
2022/09/29 02:02:47;;;;;;;8.13;4.13;;;;;;;-147.98;100.00;69253.78;5050826;28;20063;-82
2022/09/29 02:05:27;;;;;;;6.93;4.28;;;;;;;-147.98;100.00;69253.78;5040848;28;20057;-83
2022/09/29 02:08:02;;;;;;;5.65;4.30;;;;;;;-147.98;100.00;69253.78;5051082;28;20059;-81
2022/09/29 02:10:39;;;;;;;6.30;4.43;;;;;;;-147.98;100.00;69253.78;5060515;28;20056;-81
2022/09/29 02:13:15;;;;;;;;;;;;;;;-147.98;100.00;69253.78;5068008;28;20049;-81
2022/09/29 02:15:52;;;;;;;7.50;4.15;;;;;;;-147.98;100.00;69253.78;5072150;28;20498;-81
2022/09/29 02:18:32;;;;;;;7.55;4.47;;;;;;;-147.98;100.00;69253.78;5071780;28;20049;-81
2022/09/29 02:21:06;;;;;;;6.88;4.40;;;;;;;-147.98;100.00;69253.78;5065125;28;20051;-82
2022/09/29 02:23:34;;;;;;;6.70;4.38;;;;;;;-147.98;100.00;69253.78;5084870;28;20045;-82
2022/09/29 02:26:09;;;;;;;6.95;4.10;;;;;;;-147.98;100.00;69253.78;5048500;28;20088;-82
2022/09/29 02:28:44;;;;;;;6.72;4.43;;;;;;;-147.98;100.00;69253.78;5072585;28;20043;-81
2022/09/29 02:31:12;;;;;;;10.00;4.05;;;;;;;-147.98;100.00;69253.78;5080054;28;20041;-81
2022/09/29 02:33:46;;;;;;;6.93;4.32;;;;;;;-147.98;100.00;69253.78;5053608;28;20053;-81
2022/09/29 02:36:32;;;;;;;6.55;4.53;;;;;;;-147.98;100.00;69253.78;5088917;28;20045;-81
2022/09/29 02:39:15;;;;;;;6.18;4.13;;;;;;;-147.98;100.00;69253.78;5064614;28;20041;-81
2022/09/29 02:41:57;;;;;;;6.72;4.30;;;;;;;-147.98;100.00;69253.78;5086094;28;20044;-82
2022/09/29 02:44:40;;;;;;;8.88;4.70;;;;;;;-147.98;100.00;69253.78;5070427;28;20051;-82
2022/09/29 02:47:32;;;;;;;5.40;3.92;;;;;;;-147.98;100.00;69253.78;5076193;28;20501;-81
2022/09/29 02:50:24;;;;;;;6.70;4.50;;;;;;;-147.98;100.00;69253.78;5092235;28;20040;-81
2022/09/29 02:52:58;;;;;;;6.28;4.45;;;;;;;-147.98;100.00;69253.78;5060061;28;20044;-83
2022/09/29 02:55:37;;;;;;;5.75;4.30;;;;;;;-147.98;100.00;69253.78;5082704;28;20056;-81
2022/09/29 02:58:15;;;;;;;5.88;4.03;;;;;;;-147.98;100.00;69253.78;5069728;28;20053;-82
2022/09/29 03:00:48;;;;;;;7.50;4.75;;;;;;;-147.98;100.00;69253.78;5081627;28;20044;-82
2022/09/29 03:03:21;;;;;;;5.88;3.85;;;;;;;-147.98;100.00;69253.78;5051953;28;20048;-82
2022/09/29 03:05:56;;;;;;;6.22;4.18;;;;;;;-147.98;100.00;69253.78;5049502;28;20072;-82
2022/09/29 03:08:31;;;;;;;5.85;4.43;;;;;;;-147.98;100.00;69253.78;5072861;28;20041;-82
2022/09/29 03:11:04;;;;;;;6.78;3.95;;;;;;;-147.98;100.00;69253.78;5066150;28;20470;-82
2022/09/29 03:13:32;;;;;;;7.57;4.50;;;;;;;-147.98;100.00;69253.78;5073037;28;20044;-82
2022/09/29 03:16:05;;;;;;;6.85;4.40;;;;;;;-147.98;100.00;69253.78;5067310;28;20037;-82
2022/09/29 03:18:33;;;;;;;7.45;4.50;;;;;;;-147.98;100.00;69253.78;5045302;28;20055;-83
2022/09/29 03:21:03;;;;;;;5.13;3.88;;;;;;;-147.98;100.00;69253.78;5071554;28;20036;-82
2022/09/29 03:23:36;;;;;;;7.70;4.22;;;;;;;-147.98;100.00;69253.78;5069982;28;20040;-82
2022/09/29 03:26:04;;;;;;;4.85;3.65;;;;;;;-147.98;100.00;69253.78;5057772;28;20548;-82
2022/09/29 03:28:38;;;;;;;7.32;4.25;;;;;;;-147.98;100.00;69253.78;5045046;28;20469;-82
2022/09/29 03:31:11;;;;;;;5.82;4.20;;;;;;;-147.98;100.00;69253.78;5044860;28;20044;-81
2022/09/29 03:33:44;;;;;;;4.50;3.22;;;;;;;-147.98;100.00;69253.78;5047964;28;20041;-82
2022/09/29 03:36:13;;;;;;;5.85;3.75;;;;;;;-147.98;100.00;69253.78;5062910;28;20072;-82
2022/09/29 03:38:42;;;;;;;4.97;3.38;;;;;;;-147.98;100.00;69253.78;5057028;28;20053;-82
2022/09/29 03:41:16;;;;;;;5.25;3.92;;;;;;;-147.98;100.00;69253.78;5053909;28;20484;-83
2022/09/29 03:43:49;;;;;;;6.07;3.72;;;;;;;-147.98;100.00;69253.78;5083896;28;20489;-83
2022/09/29 03:46:22;;;;;;;6.28;3.83;;;;;;;-147.98;100.00;69253.78;5082195;28;20064;-82
2022/09/29 03:48:55;;;;;;;6.60;4.18;;;;;;;-147.98;100.00;69253.78;5062734;28;20493;-82
2022/09/29 03:51:29;;;;;;;5.05;3.33;;;;;;;-147.98;100.00;69253.78;5065681;28;20057;-82
2022/09/29 03:54:03;;;;;;;7.82;4.05;;;;;;;-147.98;100.00;69253.78;5066067;28;20393;-83
2022/09/29 03:56:36;;;;;;;5.88;3.85;;;;;;;-147.98;100.00;69253.78;5060531;28;20056;-83
2022/09/29 03:59:07;;;;;;;7.97;4.65;;;;;;;-147.98;100.00;69253.78;5061209;28;20075;-82
2022/09/29 04:01:40;;;;;;;8.85;4.05;;;;;;;-147.98;100.00;69253.78;5067643;28;20032;-82
2022/09/29 04:04:09;;;;;;;6.63;3.92;;;;;;;-147.98;100.00;69253.78;5051687;28;20063;-83
2022/09/29 04:06:43;;;;;;;7.95;4.10;;;;;;;-147.98;100.00;69253.78;5065884;28;20043;-83
2022/09/29 04:09:17;;;;;;;4.95;3.65;;;;;;;-147.98;100.00;69253.78;5068029;28;20056;-83
2022/09/29 04:11:45;;;;;;;11.73;4.50;;;;;;;-147.98;100.00;69253.78;5046342;28;20696;-83
2022/09/29 04:14:18;;;;;;;6.95;4.30;;;;;;;-147.98;100.00;69253.78;5071117;28;20389;-82
2022/09/29 04:16:51;;;;;;;6.00;3.83;;;;;;;-147.98;100.00;69253.78;5066133;28;20048;-82
2022/09/29 04:19:24;;;;;;;6.80;3.80;;;;;;;-147.98;100.00;69253.78;5055046;28;20059;-82
2022/09/29 04:21:59;;;;;;;6.32;3.92;;;;;;;-147.98;100.00;69253.78;5074623;28;20036;-82
2022/09/29 04:24:27;;;;;;;6.38;4.20;;;;;;;-147.98;100.00;69253.78;5074665;28;20051;-83
2022/09/29 04:27:00;;;;;;;6.18;4.32;;;;;;;-147.98;100.00;69253.78;5058413;28;20417;-83
2022/09/29 04:29:33;;;;;;;7.28;4.20;;;;;;;-147.98;100.00;69253.78;5088921;28;20064;-82
2022/09/29 04:32:07;;;;;;;7.75;3.90;;;;;;;-147.98;100.00;69253.78;5068522;28;20037;-82
2022/09/29 04:34:40;;;;;;;5.95;4.05;;;;;;;-147.98;100.00;69253.78;5064881;28;20048;-82
2022/09/29 04:37:15;;;;;;;5.90;4.20;;;;;;;-147.98;100.00;69253.78;5056122;28;20405;-83
2022/09/29 04:39:48;;;;;;;6.28;3.97;;;;;;;-147.98;100.00;69253.78;5055923;28;20052;-83
2022/09/29 04:42:21;;;;;;;7.55;4.50;;;;;;;-147.98;100.00;69253.78;5060968;28;20808;-83
2022/09/29 04:44:54;;;;;;;7.85;4.13;;;;;;;-147.98;100.00;69253.78;5077332;28;20040;-83
2022/09/29 04:47:27;;;;;;;7.72;5.10;;;;;;;-147.98;100.00;69253.78;5094338;28;20048;-83
2022/09/29 04:50:00;;;;;;;7.00;4.47;;;;;;;-147.98;100.00;69253.78;5059938;28;20044;-83
2022/09/29 04:52:35;;;;;;;6.88;4.43;;;;;;;-147.98;100.00;69253.78;5054051;28;20048;-82
2022/09/29 04:55:11;;;;;;;6.90;4.68;;;;;;;-147.98;100.00;69253.78;5054033;28;20045;-82
2022/09/29 04:57:39;;;;;;;7.30;4.50;;;;;;;-147.98;100.00;69253.78;5052194;28;20049;-83
2022/09/29 05:00:09;;;;;;;7.65;4.60;;;;;;;-147.98;100.00;69253.78;5080743;28;20048;-83
2022/09/29 05:02:42;;;;;;;9.98;5.22;;;;;;;-147.98;100.00;69253.78;5056023;28;20053;-83
2022/09/29 05:05:15;;;;;;;6.68;4.22;;;;;;;-147.98;100.00;69253.78;5073901;28;20499;-83
2022/09/29 05:07:49;;;;;;;7.18;4.93;;;;;;;-147.98;100.00;69253.78;5071759;28;20040;-82
2022/09/29 05:10:23;;;;;;;7.55;4.88;;;;;;;-147.98;100.00;69253.78;5053710;28;20055;-82
2022/09/29 05:12:56;;;;;;;6.03;4.28;;;;;;;-147.98;100.00;69253.78;5055412;28;20041;-82
2022/09/29 05:15:29;;;;;;;6.50;4.32;;;;;;;-147.98;100.00;69253.78;5073692;28;20063;-83
2022/09/29 05:18:03;;;;;;;12.57;4.60;;;;;;;-147.98;100.00;69253.78;5093026;28;20039;-82
2022/09/29 05:20:36;;;;;;;6.40;4.32;;;;;;;-147.98;100.00;69253.78;5095001;28;20407;-82
2022/09/29 05:23:27;;;;;;;7.30;4.90;;;;;;;-147.98;100.00;69253.78;5094246;28;20062;-82
2022/09/29 05:26:03;;;;;;;6.43;4.57;;;;;;;-147.98;100.00;69253.78;5089442;28;20070;-82
2022/09/29 05:28:31;;;;;;;9.35;5.03;;;;;;;-147.98;100.00;69253.78;5073113;28;20055;-82
2022/09/29 05:31:06;;;;;;;12.38;4.85;;;;;;;-147.98;100.00;69253.78;5072926;28;20052;-82
2022/09/29 05:33:39;;;;;;;9.00;5.03;;;;;;;-147.98;100.00;69253.78;5059588;28;20075;-83
2022/09/29 05:36:12;;;;;;;8.40;5.35;;;;;;;-147.98;100.00;69253.78;5065370;28;20071;-81
2022/09/29 05:38:47;;;;;;;9.23;4.55;;;;;;;-147.98;100.00;69253.78;5073078;28;20036;-83
2022/09/29 05:41:22;;;;;;;7.15;4.60;;;;;;;-147.98;100.00;69253.78;5072944;28;20047;-83
2022/09/29 05:43:55;;;;;;;6.75;5.25;;;;;;;-147.98;100.00;69253.78;5073091;28;20044;-82
2022/09/29 05:46:28;;;;;;;6.78;4.97;;;;;;;-147.98;100.00;69253.78;5055047;28;20052;-81
2022/09/29 05:49:02;;;;;;;6.70;4.60;;;;;;;-147.98;100.00;69253.78;5073144;28;20412;-83
2022/09/29 05:51:30;;;;;;;7.80;5.38;;;;;;;-147.98;100.00;69253.78;5083765;28;20052;-81
2022/09/29 05:54:06;;;;;;;7.10;4.72;;;;;;;-147.98;100.00;69253.78;5041255;28;20048;-82
2022/09/29 05:56:39;;;;;;;6.70;4.63;;;;;;;-147.98;100.00;69253.78;5063429;28;20056;-83
2022/09/29 05:59:12;;;;;;;8.20;4.68;;;;;;;-147.98;100.00;69253.78;5053894;28;20060;-84
2022/09/29 06:01:40;;;;;;;7.60;4.47;;;;;;;-147.98;100.00;69253.78;5072175;28;20505;-83
2022/09/29 06:04:13;;;;;;;6.53;5.03;;;;;;;-147.98;100.00;69253.78;5072483;28;20040;-83
2022/09/29 06:06:47;;;;;;;6.70;4.93;;;;;;;-147.98;100.00;69253.78;5065030;28;20374;-84
2022/09/29 06:09:21;;;;;;;6.88;5.03;;;;;;;-147.98;100.00;69253.78;5065264;28;20505;-83
2022/09/29 06:11:49;;;;;;;7.90;5.57;;;;;;;-147.98;100.00;69253.78;5057528;28;20044;-82
2022/09/29 06:14:22;;;;;;;7.85;5.32;;;;;;;-147.98;100.00;69253.78;5074513;28;20518;-82
2022/09/29 06:16:56;;;;;;;7.47;5.28;;;;;;;-147.98;100.00;69253.78;5067247;28;20040;-82
2022/09/29 06:19:29;;;;;;;6.28;4.88;;;;;;;-147.98;100.00;69253.78;5058857;28;20362;-82
2022/09/29 06:22:02;;;;;;;6.50;5.05;;;;;;;-147.98;100.00;69253.78;5077620;28;20055;-82
2022/09/29 06:24:36;;;;;;;8.85;5.93;;;;;;;-147.98;100.00;69253.78;5064937;28;20048;-82
2022/09/29 06:27:09;;;;;;;7.28;5.50;;;;;;;-147.98;100.00;69253.78;5049576;28;20055;-83
2022/09/29 06:29:43;;;;;;;7.95;5.85;;;;;;;-147.98;100.00;69253.78;5051606;28;20052;-81
2022/09/29 06:32:16;;;;;;;7.55;5.28;;;;;;;-147.98;100.00;69253.78;5043483;28;20402;-83
2022/09/29 06:37:35;;;;;;;9.15;5.43;;;;;;;-147.98;100.00;69253.78;5059902;28;20045;-82
2022/09/29 06:40:10;;;;;;;6.43;5.00;;;;;;;-147.98;100.00;69253.78;5063756;28;20048;-83
2022/09/29 06:42:44;;;;;;;11.45;6.07;;;;;;;-147.98;100.00;69253.78;5062411;28;20045;-81
2022/09/29 06:45:18;;;;;;;7.20;5.38;;;;;;;-147.98;100.00;69253.78;5061207;28;20037;-81
2022/09/29 06:47:58;;;;;;;7.80;5.60;;;;;;;-147.98;100.00;69253.78;5064002;28;20040;-83
2022/09/29 06:50:31;;;;;;;8.20;5.60;;;;;;;-147.98;100.00;69253.78;5053019;28;20508;-82
2022/09/29 06:53:04;;;;;;;7.72;5.85;;;;;;;-147.98;100.00;69253.78;5062793;28;20037;-81
2022/09/29 06:55:39;;;;;;;8.25;6.43;;;;;;;-147.98;100.00;69253.78;5072617;28;20409;-80
2022/09/29 06:58:07;;;;;;;8.07;6.28;;;;;;;-147.98;100.00;69253.78;5057483;28;20051;-81
2022/09/29 07:00:38;;;;;;;8.95;6.30;;;;;;;-147.98;100.00;69253.78;5059086;28;20040;-81
2022/09/29 07:03:11;;;;;;;7.90;6.03;;;;;;;-147.98;100.00;69253.78;5063779;28;20362;-80
2022/09/29 07:05:44;;;;;;;10.57;6.40;;;;;;;-147.98;100.00;69253.78;5065060;28;20473;-81
2022/09/29 07:08:18;;;;;;;8.25;6.45;;;;;;;-147.98;100.00;69253.78;5040117;28;20416;-81
2022/09/29 07:10:52;;;;;;;8.13;6.45;;;;;;;-147.98;100.00;69253.78;5040705;28;20053;-81
2022/09/29 07:13:26;;;;;;;8.98;6.40;;;;;;;-147.98;100.00;69253.78;5035938;28;20071;-82
2022/09/29 07:16:06;;;;;;;10.27;6.60;;;;;;;-147.98;100.00;69253.78;5017401;28;20083;-81
2022/09/29 07:18:41;;;;;;;9.75;6.78;;;;;;;-147.98;100.00;69253.78;5020713;28;20048;-80
2022/09/29 07:21:16;;;;;;;8.50;7.00;;;;;;;-147.98;100.00;69253.78;5029878;28;20064;-80
2022/09/29 07:23:46;;;;;;;8.73;7.07;;;;;;;-147.98;100.00;69253.78;5039372;28;20551;-80
2022/09/29 07:26:21;;;;;;;9.32;6.38;;;;;;;-147.98;100.00;69253.78;5043077;28;20397;-80
2022/09/29 07:28:54;;;;;;;9.40;7.00;;;;;;;-147.98;100.00;69253.78;5037280;28;20056;-80
2022/09/29 07:31:27;;;;;;;8.60;6.95;;;;;;;-147.98;100.00;69253.78;5022518;28;20068;-80
2022/09/29 07:33:56;;;;;;;10.85;7.60;;;;;;;-147.98;100.00;69253.78;5023183;28;20052;-79
2022/09/29 07:36:29;;;;;;;8.48;7.22;;;;;;;-147.98;100.00;69253.78;5039348;28;20059;-80
2022/09/29 07:39:02;;;;;;;11.23;7.28;;;;;;;-147.98;100.00;69253.78;5053899;28;20056;-81
2022/09/29 07:41:37;;;;;;;9.85;7.15;;;;;;;-147.98;100.00;69253.78;5036300;28;20061;-80
2022/09/29 07:44:10;;;;;;;9.02;7.05;;;;;;;-147.98;100.00;69253.78;5052158;28;20497;-80
2022/09/29 07:46:43;;;;;;;8.18;6.43;;;;;;;-147.98;100.00;69253.78;5030621;28;20691;-82
2022/09/29 07:49:16;;;;;;;9.57;7.53;;;;;;;-147.98;100.00;69253.78;5054001;28;20051;-80
2022/09/29 07:51:51;;;;;;;10.75;8.45;;;;;;;-147.98;100.00;69253.78;5041572;28;20052;-82
2022/09/29 07:54:24;;;;;;;8.40;6.75;;;;;;;-147.98;100.00;69253.78;5039211;28;20045;-81
2022/09/29 07:56:53;;;;;;;8.85;7.07;;;;;;;-147.98;100.00;69253.78;5039247;28;20684;-80
2022/09/29 07:59:27;;;;;;;8.73;7.45;;;;;;;-147.98;100.00;69253.78;5038070;28;20057;-80
2022/09/29 08:02:01;;;;;;;8.55;6.88;;;;;;;-147.98;100.00;69253.78;5017883;28;20075;-81
2022/09/29 08:04:34;;;;;;;9.05;7.13;;;;;;;-147.98;100.00;69253.78;5024907;28;20063;-81
2022/09/29 08:07:07;;;;;;;8.68;7.40;;;;;;;-147.98;100.00;69253.78;5029394;28;20052;-80
2022/09/29 08:09:40;;;;;;;8.52;6.93;;;;;;;-147.98;100.00;69253.78;5055967;28;20056;-81
2022/09/29 08:12:15;;;;;;;10.18;7.10;;;;;;;-147.98;100.00;69253.78;5019137;28;20063;-81
2022/09/29 08:14:43;;;;;;;10.43;7.18;;;;;;;-147.98;100.00;69253.78;5018004;28;20251;-81
2022/09/29 08:17:16;;;;;;;7.38;6.07;;;;;;;-147.98;100.00;69253.78;5014332;28;20059;-81
2022/09/29 08:19:49;;;;;;;7.60;6.53;;;;;;;-147.98;100.00;69253.78;5033321;28;20048;-82
2022/09/29 08:22:23;;;;;;;7.22;6.13;;;;;;;-147.98;100.00;69253.78;5039973;28;20067;-82
2022/09/29 08:24:53;;;;;;;10.90;6.28;;;;;;;-147.98;100.00;69253.78;5038829;28;21846;-86
2022/09/29 08:27:28;;;;;;;9.82;6.35;;;;;;;-147.98;100.00;69253.78;5027598;28;20056;-80
2022/09/29 08:30:01;;;;;;;8.32;6.05;;;;;;;-147.98;100.00;69253.78;5041367;28;20048;-82
2022/09/29 08:32:34;;;;;;;7.50;5.32;;;;;;;-147.98;100.00;69253.78;5044562;28;20043;-81
2022/09/29 08:35:02;;;;;;;7.68;5.68;;;;;;;-147.98;100.00;69253.78;5057874;28;20048;-82
2022/09/29 08:37:35;;;;;;;7.53;5.72;;;;;;;-147.98;100.00;69253.78;5027956;28;20670;-81
2022/09/29 08:40:09;;;;;;;8.85;5.47;;;;;;;-147.98;100.00;69253.78;5042954;28;20044;-81
2022/09/29 08:42:53;;;;;;;7.43;5.55;;;;;;;-147.98;100.00;69253.78;5025869;28;20059;-81
2022/09/29 08:45:29;;;;;;;9.23;6.03;;;;;;;-147.98;100.00;69253.78;5040119;28;20059;-80
2022/09/29 08:48:09;;;;;;;8.82;5.60;;;;;;;-147.98;100.00;69253.78;5025306;28;20488;-81
2022/09/29 08:50:46;;;;;;;6.70;5.00;;;;;;;-147.98;100.00;69253.78;5033222;28;20036;-81
2022/09/29 08:53:22;;;;;;;7.82;5.72;;;;;;;-147.98;100.00;69253.78;5013071;28;20480;-80
2022/09/29 08:55:58;;;;;;;6.65;4.95;;;;;;;-147.98;100.00;69253.78;5038206;28;20532;-81
2022/09/29 08:58:34;;;;;;;9.25;5.72;;;;;;;-147.98;100.00;69253.78;5037141;28;20052;-80
2022/09/29 09:01:21;;;;;;;7.78;5.45;;;;;;;-147.98;100.00;69253.78;5037021;28;20048;-82
2022/09/29 09:04:14;;;;;;;8.75;5.38;;;;;;;-147.98;100.00;69253.78;5041822;28;20048;-81
2022/09/29 09:06:58;;;;;;;8.05;5.28;;;;;;;-147.98;100.00;69253.78;5045253;28;20059;-81
2022/09/29 09:09:54;;;;;;;7.70;4.63;;;;;;;-147.98;100.00;69253.78;5006879;28;20544;-81
2022/09/29 09:13:09;;;;;;;8.00;5.50;;;;;;;-147.98;100.00;69253.78;5050708;28;20500;-81
2022/09/29 09:15:54;;;;;;;7.15;4.78;;;;;;;-147.98;100.00;69253.78;5029354;28;20044;-81
2022/09/29 09:18:46;;;;;;;7.30;4.55;;;;;;;-147.98;100.00;69253.78;5041784;28;20520;-80
2022/09/29 09:21:26;;;;;;;8.02;4.55;;;;;;;-147.98;100.00;69253.78;5012674;28;20052;-81
2022/09/29 09:24:05;;;;;;;6.70;4.28;;;;;;;-147.98;100.00;69253.78;5035094;28;20489;-81
2022/09/29 09:26:42;;;;;;;6.68;4.07;;;;;;;-147.98;100.00;69253.78;5054194;28;20531;-81
2022/09/29 09:29:23;;;;;;;7.28;4.40;;;;;;;-147.98;100.00;69253.78;5038131;28;20059;-81
2022/09/29 09:32:01;;;;;;;8.00;4.70;;;;;;;-147.98;100.00;69253.78;5047133;28;20047;-81
2022/09/29 09:34:43;;;;;;;6.80;4.07;;;;;;;-147.98;100.00;69253.78;5022410;28;20056;-81
2022/09/29 09:37:20;;;;;;;6.85;4.15;;;;;;;-147.98;100.00;69253.78;5042905;28;20048;-81
2022/09/29 09:39:56;;;;;;;7.00;4.40;;;;;;;-147.98;100.00;69253.78;5020115;28;20048;-81
2022/09/29 09:42:36;;;;;;;7.50;4.25;;;;;;;-147.98;100.00;69253.78;5022513;28;20056;-81
2022/09/29 09:45:10;;;;;;;6.45;3.70;;;;;;;-147.98;100.00;69253.78;5030346;28;20048;-81
2022/09/29 09:47:49;;;;;;;6.93;4.00;;;;;;;-147.98;100.00;69253.78;5044596;28;20048;-80
2022/09/29 09:50:24;;;;;;;8.05;4.43;;;;;;;-147.98;100.00;69253.78;5020178;28;20052;-82
2022/09/29 09:53:02;;;;;;;6.88;4.10;;;;;;;-147.98;100.00;69253.78;5048608;28;20503;-81
2022/09/29 09:55:35;;;;;;;8.05;4.57;;;;;;;-147.98;100.00;69253.78;5046696;28;20044;-81
2022/09/29 09:58:44;;;;;;;8.20;4.70;;;;;;;-147.98;100.00;69253.78;5047144;28;20049;-81
2022/09/29 10:01:17;;;;;;;8.35;4.57;;;;;;;-147.98;100.00;69253.78;5058310;28;20060;-81
2022/09/29 10:03:52;;;;;;;7.45;4.25;;;;;;;-147.98;100.00;69253.78;5047178;28;20044;-85
2022/09/29 10:06:25;;;;;;;7.30;4.63;;;;;;;-147.98;100.00;69253.78;5040727;28;20052;-80
2022/09/29 10:08:58;;;;;;;10.18;4.90;;;;;;;-147.98;100.00;69253.78;5032695;28;20048;-81
2022/09/29 10:11:32;;;;;;;8.93;5.35;;;;;;;-147.98;100.00;69253.78;5022203;28;20060;-82
2022/09/29 10:14:16;;;;;;;7.95;5.18;;;;;;;-147.98;100.00;69253.78;5042678;28;20051;-81
2022/09/29 10:16:48;;;;;;;6.35;4.25;;;;;;;-147.98;100.00;69253.78;5018092;28;20569;-81
2022/09/29 10:19:44;;;;;;;7.85;4.85;;;;;;;-147.98;100.00;69253.78;5059309;28;20057;-81
2022/09/29 10:22:12;;;;;;;;;;;;;;;-147.98;100.00;69253.78;5041561;28;20045;-81
2022/09/29 10:24:45;;;;;;;;;;;;;;;-147.98;100.00;69253.78;5038525;28;19936;-81
2022/09/29 10:27:18;;;;;;;;;;;;;;;-147.98;100.00;69253.78;5041330;28;20381;-81
2022/09/29 10:29:48;;;;;;;;;;;;;;;-147.98;100.00;69253.78;5055802;28;19928;-81
2022/09/29 10:32:23;;;;;;;;;;;;;;;-147.98;100.00;69253.78;5041008;28;19928;-82
2022/09/29 10:35:04;;;;;;;;;;;;;;;-147.98;100.00;69253.78;5039097;28;19939;-80
2022/09/29 10:37:34;;;;;;;;;;;;;;;-147.98;100.00;69253.78;5046953;28;19928;-81
2022/09/29 10:40:04;;;;;;;;;;;;;;;-147.98;100.00;69253.78;5043910;28;19998;-81
2022/09/29 10:42:38;;;;;;;;;;;;;;;-147.98;100.00;69253.78;5045248;28;19928;-81
2022/09/29 10:45:12;;;;;;;;;;;;;;;-147.98;100.00;69253.78;5038562;28;21170;-81
2022/09/29 10:47:41;;;;;;;;;;;;;;;-147.98;100.00;69253.78;5024460;28;19928;-83
2022/09/29 10:50:17;;;;;;;;;;;;;;;-147.98;100.00;69253.78;5049391;28;19939;-81
2022/09/29 10:52:52;;;;;;;;;;;;;;;-147.98;100.00;69253.78;5060407;28;19974;-82
2022/09/29 10:55:23;;;;;;;;;;;;;;;-147.98;100.00;69253.78;5048987;28;21354;-82
2022/09/29 10:57:51;;;;;;;;;;;;;;;-147.98;100.00;69253.78;5038092;28;19928;-81
2022/09/29 11:00:25;;;;;;;;;;;;;;;-147.98;100.00;69253.78;5052647;28;19929;-80
2022/09/29 11:03:03;;;;;;;;;;;;;;;-147.98;100.00;69253.78;5042265;28;19929;-80
2022/09/29 11:05:38;;;;;;;;;;;;;;;-147.98;100.00;69253.78;5039749;28;19925;-81
2022/09/29 11:08:12;;;;;;;;;;;;;;;-147.98;100.00;69253.78;5039296;28;20308;-82
2022/09/29 11:10:46;;;;;;;;;;;;;;;-147.98;100.00;69253.78;5012702;28;19935;-81
2022/09/29 11:13:34;;;;;;;;;;;;;;;-147.98;100.00;69253.78;5041670;28;19928;-80
2022/09/29 11:16:16;;;;;;;;;;;;;;;-147.98;100.00;69253.78;5027254;28;19928;-83
2022/09/29 11:18:51;;;;;;;;;;;;;;;-147.98;100.00;69253.78;5045377;28;19928;-82
2022/09/29 11:21:37;;;;;;;;;;;;;;;-147.98;100.00;69253.78;5041881;28;19928;-83
2022/09/29 11:24:11;;;;;;;;;;;;;;;-147.98;100.00;69253.78;5044744;28;19928;-83
2022/09/29 11:26:47;;;;;;;;;;;;;;;-147.98;100.00;69253.78;5024523;28;19947;-82
2022/09/29 11:29:25;;;;;;;;;;;;;;;-147.98;100.00;69253.78;5051000;28;19928;-82
2022/09/29 11:32:00;;;;;;;;;;;;;;;-147.98;100.00;69253.78;5025694;28;19928;-83
2022/09/29 11:34:53;;;;;;;5.55;3.17;;;;;;;-147.98;100.00;69253.78;5047451;28;19928;-83
2022/09/29 11:37:32;;;;;;;6.00;3.13;;;;;;;-147.98;100.00;69253.78;5062330;28;20052;-83
2022/09/29 11:40:12;;;;;;;5.90;3.40;;;;;;;-147.98;100.00;69253.78;5045860;28;20041;-82
2022/09/29 11:43:00;;;;;;;6.78;3.40;;;;;;;-147.98;100.00;69253.78;5051037;28;20045;-81
2022/09/29 11:45:43;;;;;;;8.70;4.25;;;;;;;-147.98;100.00;69253.78;5045204;28;20059;-82
2022/09/29 11:48:53;;;;;;;6.03;3.25;;;;;;;-147.98;100.00;69253.78;5029558;28;20052;-81
2022/09/29 11:51:35;;;;;;;6.93;3.92;;;;;;;-147.98;100.00;69253.78;5044428;28;20072;-81
2022/09/29 11:54:30;;;;;;;8.95;4.75;;;;;;;-147.98;100.00;69253.78;5028665;28;20052;-81
2022/09/29 11:57:10;;;;;;;8.88;4.55;;;;;;;-147.98;100.00;69253.78;5033728;28;20048;-81
2022/09/29 11:59:55;;;;;;;7.53;4.35;;;;;;;-147.98;100.00;69253.78;5014735;28;20052;-82